createdAt,value
2022-09-25T00:00:55.084Z,106.28
2022-09-25T00:03:29.563Z,35.05
2022-09-25T00:06:03.393Z,11.65
2022-09-25T00:08:44.821Z,17.25
2022-09-25T00:11:19.429Z,13.10
2022-09-25T00:13:53.384Z,5.70
2022-09-25T00:16:22.724Z,2.45
2022-09-25T00:19:15.380Z,2.55
2022-09-25T00:21:43.131Z,3.80
2022-09-25T00:24:17.516Z,4.82
2022-09-25T00:26:44.783Z,5.68
2022-09-25T00:29:16.699Z,7.00
2022-09-25T00:31:50.381Z,6.18
2022-09-25T00:34:17.673Z,6.95
2022-09-25T00:36:51.575Z,11.68
2022-09-25T00:39:18.889Z,7.82
2022-09-25T00:41:45.988Z,10.57
2022-09-25T00:44:38.401Z,10.57
2022-09-25T00:47:05.616Z,10.95
2022-09-25T00:49:39.468Z,6.78
2022-09-25T00:52:07.977Z,9.38
2022-09-25T00:54:47.373Z,6.90
2022-09-25T00:57:16.873Z,9.40
2022-09-25T00:59:53.404Z,6.53
2022-09-25T01:02:24.892Z,7.25
2022-09-25T01:04:59.428Z,4.72
2022-09-25T01:07:26.982Z,5.22
2022-09-25T01:10:09.863Z,9.95
2022-09-25T01:12:39.221Z,5.55
2022-09-25T01:15:07.358Z,4.65
2022-09-25T01:18:04.388Z,6.70
2022-09-25T01:20:50.283Z,8.15
2022-09-25T01:23:28.421Z,6.07
2022-09-25T01:25:56.440Z,7.90
2022-09-25T01:28:36.596Z,6.82
2022-09-25T01:31:05.461Z,8.15
2022-09-25T01:33:36.251Z,7.75
2022-09-25T01:36:15.412Z,6.82
2022-09-25T01:38:45.685Z,7.75
2022-09-25T01:41:29.433Z,7.55
2022-09-25T01:43:56.591Z,7.80
2022-09-25T01:46:33.405Z,7.88
2022-09-25T01:49:03.216Z,8.35
2022-09-25T01:51:43.417Z,7.07
2022-09-25T01:54:12.706Z,12.82
2022-09-25T01:56:50.404Z,8.98
2022-09-25T01:59:23.839Z,12.80
2022-09-25T02:01:59.856Z,13.75
2022-09-25T02:04:32.944Z,10.98
2022-09-25T02:07:08.636Z,8.30
2022-09-25T02:09:44.382Z,13.40
2022-09-25T02:12:29.424Z,16.10
2022-09-25T02:15:01.588Z,20.38
2022-09-25T02:18:00.414Z,22.08
2022-09-25T02:20:32.516Z,27.10
2022-09-25T02:23:12.488Z,11.27
2022-09-25T02:25:45.507Z,23.70
2022-09-25T02:28:19.565Z,13.88
2022-09-25T02:30:48.594Z,31.73
2022-09-25T02:33:22.682Z,26.88
2022-09-25T02:35:50.082Z,24.88
2022-09-25T02:38:17.357Z,30.48
2022-09-25T02:40:53.484Z,30.40
2022-09-25T02:43:26.728Z,14.90
2022-09-25T02:46:09.487Z,12.45
2022-09-25T02:48:56.965Z,7.28
2022-09-25T02:51:36.401Z,10.93
2022-09-25T02:54:10.098Z,8.18
2022-09-25T02:56:52.407Z,8.00
2022-09-25T02:59:22.081Z,8.93
2022-09-25T03:01:56.564Z,19.88
2022-09-25T03:04:24.485Z,27.90
2022-09-25T03:06:58.581Z,17.75
2022-09-25T03:09:32.414Z,13.13
2022-09-25T03:12:13.496Z,24.95
2022-09-25T03:14:40.683Z,29.25
2022-09-25T03:17:10.269Z,18.13
2022-09-25T03:19:45.407Z,16.02
2022-09-25T03:22:12.608Z,11.88
2022-09-25T03:24:46.616Z,9.98
2022-09-25T03:27:21.790Z,12.68
2022-09-25T03:29:56.640Z,10.18
2022-09-25T03:32:23.869Z,15.57
2022-09-25T03:34:50.960Z,11.55
2022-09-25T03:37:24.461Z,7.35
2022-09-25T03:39:51.729Z,9.05
2022-09-25T03:42:26.507Z,11.52
2022-09-25T03:44:53.718Z,11.40
2022-09-25T03:47:20.858Z,13.02
2022-09-25T03:49:54.401Z,10.27
2022-09-25T03:52:22.039Z,12.68
2022-09-25T03:57:30.988Z,15.38
2022-09-25T04:00:10.689Z,19.38
2022-09-25T04:02:37.920Z,15.70
2022-09-25T04:05:05.262Z,15.68
2022-09-25T04:07:39.459Z,20.40
2022-09-25T04:10:34.346Z,20.73
2022-09-25T04:13:08.563Z,22.98
2022-09-25T04:15:35.836Z,22.40
2022-09-25T04:18:06.155Z,34.40
2022-09-25T04:20:40.418Z,50.20
2022-09-25T04:23:07.641Z,43.38
2022-09-25T04:25:41.561Z,21.27
2022-09-25T04:28:10.165Z,28.38
2022-09-25T04:30:37.339Z,12.23
2022-09-25T04:33:29.526Z,10.10
2022-09-25T04:35:56.876Z,80.38
2022-09-25T04:38:30.668Z,30.58
2022-09-25T04:40:57.945Z,218.43
2022-09-25T04:43:25.064Z,332.05
2022-09-25T04:45:58.613Z,557.70
2022-09-25T04:48:25.815Z,524.95
2022-09-25T04:50:59.532Z,318.48
2022-09-25T04:53:27.294Z,209.32
2022-09-25T04:56:01.602Z,535.85
2022-09-25T04:58:29.043Z,212.65
2022-09-25T05:00:56.316Z,382.13
2022-09-25T05:03:30.533Z,248.68
2022-09-25T05:05:59.676Z,127.82
2022-09-25T05:08:34.679Z,225.07
2022-09-25T05:11:08.433Z,143.80
2022-09-25T05:13:42.557Z,128.55
2022-09-25T05:16:09.895Z,312.55
2022-09-25T05:18:37.038Z,142.00
2022-09-25T05:21:13.504Z,136.02
2022-09-25T05:23:40.770Z,129.75
2022-09-25T05:26:07.898Z,160.25
2022-09-25T05:28:41.552Z,128.82
2022-09-25T05:31:08.832Z,99.30
2022-09-25T05:33:42.448Z,111.22
2022-09-25T05:36:10.234Z,170.95
2022-09-25T05:38:45.474Z,132.50
2022-09-25T05:41:12.921Z,165.13
2022-09-25T05:43:50.540Z,171.55
2022-09-25T05:46:17.770Z,198.38
2022-09-25T05:48:44.930Z,115.47
2022-09-25T05:51:18.722Z,377.08
2022-09-25T05:53:47.563Z,583.25
2022-09-25T05:56:16.431Z,227.70
2022-09-25T05:58:50.488Z,401.10
2022-09-25T06:01:17.695Z,315.42
2022-09-25T06:03:51.577Z,405.60
2022-09-25T06:06:21.390Z,98.88
2022-09-25T06:09:04.658Z,127.15
2022-09-25T06:11:40.724Z,103.65
2022-09-25T06:14:14.622Z,108.00
2022-09-25T06:16:41.870Z,80.40
2022-09-25T06:19:09.053Z,266.65
2022-09-25T06:21:42.512Z,177.32
2022-09-25T06:24:10.779Z,134.13
2022-09-25T06:26:44.688Z,131.10
2022-09-25T06:29:11.865Z,95.90
2022-09-25T06:31:39.258Z,73.78
2022-09-25T06:34:13.570Z,80.53
2022-09-25T06:36:40.911Z,88.75
2022-09-25T06:39:15.636Z,92.15
2022-09-25T06:41:42.899Z,75.68
2022-09-25T06:44:10.133Z,99.57
2022-09-25T06:46:44.613Z,62.95
2022-09-25T06:49:13.429Z,47.38
2022-09-25T06:51:47.705Z,75.18
2022-09-25T06:54:14.946Z,77.45
2022-09-25T06:56:42.084Z,60.05
2022-09-25T06:59:16.666Z,67.82
2022-09-25T07:01:50.569Z,79.30
2022-09-25T07:04:18.686Z,70.07
2022-09-25T07:06:45.909Z,65.00
2022-09-25T07:09:19.505Z,58.85
2022-09-25T07:11:48.657Z,57.60
2022-09-25T07:14:22.854Z,55.50
2022-09-25T07:16:50.100Z,49.03
2022-09-25T07:19:17.271Z,56.17
2022-09-25T07:21:51.639Z,57.97
2022-09-25T07:24:18.808Z,52.33
2022-09-25T07:26:46.205Z,54.35
2022-09-25T07:29:19.507Z,68.35
2022-09-25T07:31:53.394Z,84.57
2022-09-25T07:34:20.705Z,92.65
2022-09-25T07:36:54.566Z,113.72
2022-09-25T07:39:21.873Z,104.60
2022-09-25T07:41:49.053Z,96.70
2022-09-25T07:44:29.223Z,88.75
2022-09-25T07:46:57.514Z,87.75
2022-09-25T07:49:31.681Z,69.38
2022-09-25T07:51:59.610Z,78.18
2022-09-25T07:54:26.718Z,73.60
2022-09-25T07:57:00.581Z,70.85
2022-09-25T07:59:27.831Z,97.25
2022-09-25T08:01:55.067Z,79.15
2022-09-25T08:04:28.507Z,85.43
2022-09-25T08:06:55.772Z,78.47
2022-09-25T08:09:29.699Z,66.43
2022-09-25T08:12:03.548Z,64.95
2022-09-25T08:14:37.696Z,61.72
2022-09-25T08:17:04.951Z,56.25
2022-09-25T08:19:33.208Z,53.35
2022-09-25T08:22:06.519Z,49.67
2022-09-25T08:24:33.792Z,46.25
2022-09-25T08:27:07.761Z,39.08
2022-09-25T08:29:35.063Z,45.55
2022-09-25T08:32:02.440Z,46.75
2022-09-25T08:34:41.056Z,45.65
2022-09-25T08:37:09.322Z,43.67
2022-09-25T08:39:42.515Z,38.70
2022-09-25T08:42:32.204Z,41.13
2022-09-25T08:45:26.708Z,34.33
2022-09-25T08:48:14.560Z,37.85
2022-09-25T08:50:48.534Z,36.92
2022-09-25T08:56:19.539Z,40.85
2022-09-25T08:58:48.625Z,41.45
2022-09-25T09:01:32.654Z,35.78
2022-09-25T09:04:11.158Z,30.45
2022-09-25T09:06:53.103Z,33.95
2022-09-25T09:09:48.494Z,35.08
2022-09-25T09:12:24.861Z,40.25
2022-09-25T09:14:55.983Z,34.28
2022-09-25T09:17:31.548Z,31.27
2022-09-25T09:20:00.757Z,32.08
2022-09-25T09:22:38.520Z,29.95
2022-09-25T09:25:05.718Z,29.42
2022-09-25T09:27:39.533Z,32.72
2022-09-25T09:30:09.905Z,29.27
2022-09-25T09:32:46.776Z,27.73
2022-09-25T09:35:20.671Z,29.48
2022-09-25T09:38:06.559Z,32.47
2022-09-25T09:40:52.502Z,30.15
2022-09-25T09:43:53.593Z,30.45
2022-09-25T09:46:50.127Z,26.35
2022-09-25T09:49:37.586Z,25.25
2022-09-25T09:52:10.308Z,20.52
2022-09-25T09:54:49.684Z,16.65
2022-09-25T09:57:22.587Z,18.48
2022-09-25T10:00:04.683Z,20.23
2022-09-25T10:02:44.119Z,16.75
2022-09-25T10:05:44.661Z,18.75
2022-09-25T10:08:11.948Z,21.35
2022-09-25T10:10:54.697Z,16.33
2022-09-25T10:13:34.367Z,15.05
2022-09-25T10:16:12.599Z,11.82
2022-09-25T10:21:19.552Z,13.35
2022-09-25T10:23:51.075Z,15.95
2022-09-25T10:26:30.562Z,15.93
2022-09-25T10:28:58.991Z,12.82
2022-09-25T10:31:35.554Z,8.85
2022-09-25T10:34:07.152Z,9.35
2022-09-25T10:36:46.719Z,9.20
2022-09-25T10:39:46.270Z,13.00
2022-09-25T10:42:39.867Z,12.30
2022-09-25T10:45:25.860Z,11.73
2022-09-25T10:48:18.748Z,10.57
2022-09-25T10:50:46.164Z,8.32
2022-09-25T10:53:37.560Z,10.50
2022-09-25T10:56:08.519Z,13.85
2022-09-25T10:58:45.715Z,8.95
2022-09-25T11:01:16.974Z,10.23
2022-09-25T11:03:58.750Z,9.75
2022-09-25T11:06:27.502Z,21.52
2022-09-25T11:09:20.742Z,8.80
2022-09-25T11:12:04.749Z,9.38
2022-09-25T11:14:39.681Z,9.95
2022-09-25T11:17:06.966Z,10.07
2022-09-25T11:19:44.632Z,12.02
2022-09-25T11:22:19.428Z,7.95
2022-09-25T11:24:57.300Z,15.13
2022-09-25T11:27:40.817Z,12.77
2022-09-25T11:30:18.734Z,10.60
2022-09-25T11:32:52.662Z,10.93
2022-09-25T11:35:33.766Z,10.30
2022-09-25T11:38:15.894Z,11.38
2022-09-25T11:41:23.616Z,8.07
2022-09-25T11:44:01.532Z,4.07
2022-09-25T11:46:31.780Z,6.70
2022-09-25T11:49:18.910Z,6.70
2022-09-25T11:51:49.261Z,3.08
2022-09-25T11:54:34.264Z,6.13
2022-09-25T11:57:10.544Z,5.28
2022-09-25T11:59:59.531Z,5.65
2022-09-25T12:02:45.455Z,4.18
2022-09-25T12:05:38.511Z,9.40
2022-09-25T12:08:10.654Z,3.70
2022-09-25T12:10:54.507Z,4.05
2022-09-25T12:13:28.634Z,5.45
2022-09-25T12:16:18.579Z,2.28
2022-09-25T12:18:56.216Z,2.22
2022-09-25T12:21:41.523Z,6.90
2022-09-25T12:24:15.229Z,7.63
2022-09-25T12:26:59.520Z,3.22
2022-09-25T12:29:52.775Z,2.65
2022-09-25T12:32:34.531Z,5.55
2022-09-25T12:35:01.806Z,3.45
2022-09-25T12:37:37.827Z,3.88
2022-09-25T12:40:14.787Z,4.60
2022-09-25T12:42:58.542Z,3.75
2022-09-25T12:45:34.184Z,5.35
2022-09-25T12:48:20.700Z,4.60
2022-09-25T12:50:47.933Z,5.40
2022-09-25T12:53:53.544Z,4.72
2022-09-25T12:56:24.353Z,4.68
2022-09-25T12:59:03.547Z,4.70
2022-09-25T13:01:35.163Z,6.95
2022-09-25T13:04:30.538Z,5.07
2022-09-25T13:07:06.044Z,2.47
2022-09-25T13:09:42.663Z,6.40
2022-09-25T13:12:36.798Z,2.78
2022-09-25T13:15:16.556Z,3.55
2022-09-25T13:17:43.969Z,5.53
2022-09-25T13:20:36.685Z,1.92
2022-09-25T13:23:06.235Z,4.28
2022-09-25T13:25:48.715Z,4.20
2022-09-25T13:28:20.028Z,4.43
2022-09-25T13:31:13.637Z,2.80
2022-09-25T13:33:52.655Z,3.92
2022-09-25T13:36:23.561Z,5.03
2022-09-25T13:39:21.624Z,4.90
2022-09-25T13:41:49.297Z,3.78
2022-09-25T13:44:41.646Z,4.53
2022-09-25T13:47:27.254Z,3.70
2022-09-25T13:50:18.699Z,3.63
2022-09-25T13:52:48.891Z,4.28
2022-09-25T13:55:31.900Z,6.97
2022-09-25T13:57:59.327Z,6.65
2022-09-25T14:00:27.250Z,9.40
2022-09-25T14:03:08.642Z,4.88
2022-09-25T14:05:37.117Z,3.13
2022-09-25T14:08:19.931Z,7.18
2022-09-25T14:11:08.566Z,6.60
2022-09-25T14:13:42.769Z,4.20
2022-09-25T14:16:13.679Z,5.72
2022-09-25T14:18:54.812Z,5.35
2022-09-25T14:21:22.878Z,5.07
2022-09-25T14:23:57.722Z,4.70
2022-09-25T14:26:26.066Z,4.93
2022-09-25T14:29:01.196Z,6.97
2022-09-25T14:31:37.532Z,3.63
2022-09-25T14:34:32.702Z,4.80
2022-09-25T14:37:25.506Z,3.25
2022-09-25T14:40:01.693Z,5.03
2022-09-25T14:42:29.100Z,6.10
2022-09-25T14:45:08.800Z,6.40
2022-09-25T14:47:37.457Z,3.95
2022-09-25T14:50:04.967Z,4.68
2022-09-25T14:55:07.782Z,3.30
2022-09-25T14:57:48.792Z,7.18
2022-09-25T15:00:24.693Z,2.42
2022-09-25T15:03:00.932Z,3.53
2022-09-25T15:05:28.223Z,5.47
2022-09-25T15:08:05.830Z,6.32
2022-09-25T15:10:53.576Z,5.18
2022-09-25T15:13:27.798Z,4.15
2022-09-25T15:16:16.310Z,5.85
2022-09-25T15:18:51.691Z,3.40
2022-09-25T15:21:30.289Z,2.50
2022-09-25T15:24:10.764Z,6.00
2022-09-25T15:26:41.854Z,4.38
2022-09-25T15:29:27.753Z,5.25
2022-09-25T15:31:54.933Z,7.32
2022-09-25T15:34:32.918Z,3.45
2022-09-25T15:37:22.313Z,3.70
2022-09-25T15:39:55.694Z,5.50
2022-09-25T15:42:23.298Z,3.20
2022-09-25T15:47:49.116Z,5.03
2022-09-25T15:50:28.680Z,3.50
2022-09-25T15:53:00.375Z,6.55
2022-09-25T15:55:37.677Z,4.28
2022-09-25T15:58:07.598Z,7.30
2022-09-25T16:00:59.755Z,2.72
2022-09-25T16:03:46.552Z,6.05
2022-09-25T16:06:21.805Z,6.10
2022-09-25T16:08:49.078Z,3.83
2022-09-25T16:11:30.774Z,7.82
2022-09-25T16:14:24.683Z,7.45
2022-09-25T16:16:58.776Z,4.25
2022-09-25T16:19:25.985Z,4.72
2022-09-25T16:22:00.758Z,4.93
2022-09-25T16:24:29.186Z,4.13
2022-09-25T16:27:09.804Z,5.32
2022-09-25T16:29:40.703Z,4.20
2022-09-25T16:32:15.910Z,4.20
2022-09-25T16:34:49.066Z,6.50
2022-09-25T16:37:27.686Z,4.35
2022-09-25T16:40:13.540Z,4.72
2022-09-25T16:42:47.778Z,3.90
2022-09-25T16:45:20.986Z,3.78
2022-09-25T16:47:54.858Z,4.65
2022-09-25T16:50:23.033Z,3.58
2022-09-25T16:52:50.227Z,4.68
2022-09-25T16:55:29.801Z,5.18
2022-09-25T16:57:58.480Z,4.15
2022-09-25T17:00:35.883Z,6.78
2022-09-25T17:03:03.243Z,3.00
2022-09-25T17:05:31.617Z,2.22
2022-09-25T17:08:07.866Z,5.47
2022-09-25T17:10:36.140Z,4.43
2022-09-25T17:13:17.902Z,6.07
2022-09-25T17:15:45.291Z,7.43
2022-09-25T17:18:28.830Z,4.35
2022-09-25T17:20:57.307Z,5.50
2022-09-25T17:23:25.690Z,6.72
2022-09-25T17:26:23.072Z,5.65
2022-09-25T17:28:51.236Z,3.70
2022-09-25T17:31:20.171Z,8.15
2022-09-25T17:33:57.353Z,7.35
2022-09-25T17:36:24.675Z,11.57
2022-09-25T17:38:51.789Z,6.45
2022-09-25T17:41:32.903Z,6.93
2022-09-25T17:44:00.113Z,11.40
2022-09-25T17:46:27.454Z,8.55
2022-09-25T17:49:01.968Z,7.05
2022-09-25T17:51:29.893Z,10.55
2022-09-25T17:53:57.731Z,10.05
2022-09-25T17:56:31.814Z,6.50
2022-09-25T17:58:59.087Z,8.55
2022-09-25T18:01:39.229Z,9.68
2022-09-25T18:04:21.060Z,11.93
2022-09-25T18:06:54.823Z,7.45
2022-09-25T18:09:22.183Z,8.98
2022-09-25T18:12:02.840Z,10.55
2022-09-25T18:14:30.135Z,11.90
2022-09-25T18:16:57.215Z,12.00
2022-09-25T18:19:49.801Z,8.65
2022-09-25T18:22:17.616Z,12.77
2022-09-25T18:24:51.794Z,10.70
2022-09-25T18:27:19.304Z,13.05
2022-09-25T18:29:53.861Z,10.48
2022-09-25T18:32:21.291Z,16.77
2022-09-25T18:34:48.408Z,11.45
2022-09-25T18:37:21.959Z,9.30
2022-09-25T18:39:49.743Z,8.77
2022-09-25T18:42:23.962Z,13.68
2022-09-25T18:44:51.198Z,12.55
2022-09-25T18:47:18.307Z,9.27
2022-09-25T18:49:51.768Z,12.88
2022-09-25T18:52:19.320Z,15.90
2022-09-25T18:57:20.259Z,14.63
2022-09-25T18:59:47.527Z,10.98
2022-09-25T19:02:28.923Z,15.20
2022-09-25T19:04:56.613Z,10.23
2022-09-25T19:09:58.116Z,11.13
2022-09-25T19:12:31.787Z,13.02
2022-09-25T19:15:05.791Z,9.82
2022-09-25T19:17:33.130Z,12.23
2022-09-25T19:20:00.305Z,15.98
2022-09-25T19:22:33.772Z,10.15
2022-09-25T19:25:01.028Z,12.07
2022-09-25T19:27:35.848Z,12.63
2022-09-25T19:30:03.068Z,12.88
2022-09-25T19:32:30.219Z,19.42
2022-09-25T19:35:04.011Z,12.38
2022-09-25T19:37:32.858Z,12.48
2022-09-25T19:40:26.033Z,11.60
2022-09-25T19:42:53.404Z,11.07
2022-09-25T19:45:21.175Z,11.38
2022-09-25T19:47:54.790Z,15.90
2022-09-25T19:50:22.096Z,12.70
2022-09-25T19:52:55.847Z,15.13
2022-09-25T19:55:23.861Z,12.52
2022-09-25T19:57:50.989Z,12.48
2022-09-25T20:00:24.771Z,12.88
2022-09-25T20:02:52.130Z,14.43
2022-09-25T20:05:25.935Z,9.38
2022-09-25T20:07:53.107Z,10.98
2022-09-25T20:10:20.810Z,12.27
2022-09-25T20:12:54.874Z,11.98
2022-09-25T20:15:28.849Z,16.77
2022-09-25T20:18:02.770Z,10.57
2022-09-25T20:20:30.157Z,9.02
2022-09-25T20:23:03.861Z,13.18
2022-09-25T20:25:31.140Z,16.52
2022-09-25T20:27:59.669Z,12.18
2022-09-25T20:30:35.931Z,17.05
2022-09-25T20:33:04.773Z,13.23
2022-09-25T20:35:38.845Z,12.93
2022-09-25T20:38:10.730Z,13.00
2022-09-25T20:40:45.881Z,10.95
2022-09-25T20:43:13.112Z,12.93
2022-09-25T20:45:40.281Z,12.57
2022-09-25T20:48:14.200Z,15.55
2022-09-25T20:50:49.192Z,11.93
2022-09-25T20:53:23.175Z,14.38
2022-09-25T20:55:51.395Z,13.80
2022-09-25T20:58:18.962Z,12.70
2022-09-25T21:03:20.295Z,11.52
2022-09-25T21:05:47.377Z,16.30
2022-09-25T21:08:21.903Z,9.57
2022-09-25T21:10:51.087Z,19.48
2022-09-25T21:13:33.884Z,11.23
2022-09-25T21:16:08.380Z,13.88
2022-09-25T21:18:42.856Z,14.60
2022-09-25T21:21:22.982Z,18.63
2022-09-25T21:23:51.737Z,14.23
2022-09-25T21:26:25.759Z,14.68
2022-09-25T21:28:54.003Z,18.88
2022-09-25T21:31:22.943Z,12.93
2022-09-25T21:34:03.907Z,17.75
2022-09-25T21:36:31.395Z,15.10
2022-09-25T21:39:05.894Z,15.10
2022-09-25T21:41:33.623Z,12.00
2022-09-25T21:46:35.179Z,13.80
2022-09-25T21:49:03.557Z,15.00
2022-09-25T21:51:49.835Z,19.83
2022-09-25T21:54:17.406Z,17.08
2022-09-25T21:59:18.310Z,17.27
2022-09-25T22:01:51.949Z,18.88
2022-09-25T22:04:19.207Z,16.35
2022-09-25T22:06:53.884Z,11.15
2022-09-25T22:09:22.317Z,15.88
2022-09-25T22:12:02.960Z,15.23
2022-09-25T22:14:36.706Z,15.60
2022-09-25T22:17:11.145Z,8.50
2022-09-25T22:19:38.418Z,12.93
2022-09-25T22:22:05.732Z,14.35
2022-09-25T22:24:39.875Z,8.63
2022-09-25T22:27:07.085Z,13.40
2022-09-25T22:29:43.833Z,12.05
2022-09-25T22:32:11.098Z,9.98
2022-09-25T22:34:38.246Z,9.77
2022-09-25T22:37:12.010Z,9.13
2022-09-25T22:39:39.213Z,10.02
2022-09-25T22:42:06.535Z,11.55
2022-09-25T22:44:39.851Z,10.02
2022-09-25T22:47:07.062Z,6.32
2022-09-25T22:49:41.106Z,10.05
2022-09-25T22:52:08.305Z,13.73
2022-09-25T22:54:35.407Z,7.25
2022-09-25T22:57:08.945Z,9.77
2022-09-25T22:59:36.127Z,5.28
2022-09-25T23:02:09.809Z,5.45
2022-09-25T23:04:36.917Z,7.95
2022-09-25T23:07:10.877Z,8.40
2022-09-25T23:09:38.413Z,8.55
2022-09-25T23:12:19.045Z,6.38
2022-09-25T23:14:53.989Z,11.18
2022-09-25T23:17:27.913Z,10.30
2022-09-25T23:19:55.004Z,6.28
2022-09-25T23:22:22.248Z,5.88
2022-09-25T23:24:55.912Z,7.50
2022-09-25T23:27:23.148Z,4.53
2022-09-25T23:29:56.981Z,7.10
2022-09-25T23:32:24.127Z,7.03
2022-09-25T23:34:51.255Z,5.53
2022-09-25T23:37:24.814Z,9.52
2022-09-25T23:39:52.065Z,11.27
2022-09-25T23:42:25.857Z,7.75
2022-09-25T23:44:53.081Z,8.10
2022-09-25T23:47:26.882Z,5.95
2022-09-25T23:49:54.034Z,6.00
2022-09-25T23:52:21.216Z,8.50
2022-09-25T23:54:54.918Z,9.73
2022-09-25T23:57:22.241Z,7.25
2022-09-25T23:59:56.121Z,7.90
